aviador You're here:

CYOW Decoded Metar

OTTAWA in ON, CANADA
Report Time2018-02-25 23:00:00
UTC Time2018-02-25 23:48:59
Flight Rules vfr VFR
Wind200° at 13 Gusting to 20 kt
W.Decomp.*RWY 22: 12.9 kt HW 1.4 kt LCW
RWY 25: 10.5 kt HW 7.6 kt LCW
RWY 14: 3.6 kt HW 12.5 kt RCW
W.Rank200° ranks 4
Current wind is above 200° avg. (7.4)
Visibility9999 m
Phenomena:N/A
Clouds:Few 025 Hf
Expected CloudBase > 1,600 ft AGL from Temp-Dew spread
CeilingNone
Temp06°C (ISA -8)
Dew Point02°C (76% RH)
AAT-0.3°C
QNH1006 hPa
Density Alt-285 ft
Elevation374 ft
Report Wrong Elevation
Raw Report
CYOW 252300Z 20013G20KT 15SM FEW025 06/02 A2972 RMK SC1 SC TR
SLP069=

Extra information for CYOW:More info

Metar Taf Metar & Taf Last 4 Metars F.Rules Stats Wind Profile Meteogram Temp Stats Airport Information Weather charts Add Link Nearby VenuesMetar ALERT Operation Metar Decoded Social comments